Flight Track Log - Related Links

Times and Time Zones

All times are in EDT time to prevent confusion due to time zone crossing. See the N983CA flight status page for this flight to view local times or setup timezone preferences in your user account.

Time Position Orientation Groundspeed Altitude Reporting Facility
EDT Latitude Longitude Course Direction KTS MPH feet Rate Location/Type
Wed 09:44:00 PM 40.2705 -104.7961 347° North  Level FlightAware Approximate
Wed 09:45:00 PM 40.3755 -104.8307 346° North  Level FlightAware Approximate
Wed 09:46:00 PM 40.4804 -104.8657 346° North  Level FlightAware Approximate
Wed 09:47:00 PM 40.5859 -104.8953 346° North  Level FlightAware Approximate
Wed 09:48:00 PM 40.6909 -104.9303 346° North  Level FlightAware Approximate
Wed 09:49:00 PM 40.7942 -104.9721 339° North  Level FlightAware Approximate
Wed 09:50:00 PM 40.8978 -105.0119 349° North  Level FlightAware Approximate
Wed 09:51:00 PM 41.0040 -105.0397 347° North  Level FlightAware Approximate
Wed 09:52:00 PM 41.1094 -105.0721 347° North  Level FlightAware Approximate
Wed 09:53:00 PM 41.2148 -105.1049 346° North  Level FlightAware Approximate
Wed 09:54:00 PM 41.3195 -105.1414 343° North  Level FlightAware Approximate
Wed 09:55:00 PM 41.4229 -105.1845 343° North  Level FlightAware Approximate
Wed 09:56:00 PM 41.5266 -105.2255 346° North  Level FlightAware Approximate
Wed 09:57:00 PM 41.5612 -105.3448 278° West  Level FlightAware Approximate
Wed 09:58:00 PM 41.5735 -105.4886 276° West  Level FlightAware Approximate
Wed 09:59:00 PM 41.5852 -105.6324 279° West  Level FlightAware Approximate
Wed 10:00:00 PM 41.6018 -105.7755 279° West  Level FlightAware Approximate
Wed 10:01:00 PM 41.6184 -105.9186 279° West  Level FlightAware Approximate
Wed 10:02:00 PM 41.6343 -106.0619 276° West  Level FlightAware Approximate
Wed 10:03:00 PM 41.6454 -106.2059 276° West  Level FlightAware Approximate
Wed 10:04:00 PM 41.6569 -106.3500 276° West  Level FlightAware Approximate
Wed 10:05:00 PM 41.6686 -106.4941 276° West  Level FlightAware Approximate
Wed 10:06:00 PM 41.6801 -106.6382 276° West  Level FlightAware Approximate
Wed 10:07:00 PM 41.6914 -106.7824 276° West  Level FlightAware Approximate
Wed 10:08:00 PM 41.7026 -106.9266 276° West  Level FlightAware Approximate
Wed 10:09:00 PM 41.7136 -107.0709 276° West  Level FlightAware Approximate
Wed 10:10:00 PM 41.7244 -107.2152 276° West  Level FlightAware Approximate
Wed 10:11:00 PM 41.7351 -107.3596 276° West  Level FlightAware Approximate
Wed 10:12:00 PM 41.7455 -107.5040 276° West  Level FlightAware Approximate
Wed 10:13:00 PM 41.7695 -107.6445 289° West  Level FlightAware Approximate
Wed 10:14:00 PM 41.8038 -107.7823 288° West  Level FlightAware Approximate
Wed 10:15:00 PM 41.8372 -107.9204 288° West  Level FlightAware Approximate
Wed 10:16:00 PM 41.8705 -108.0588 288° West  Level FlightAware Approximate
Wed 10:17:00 PM 41.9036 -108.1972 288° West  Level FlightAware Approximate
Wed 10:18:00 PM 41.9366 -108.3358 288° West  Level FlightAware Approximate
Wed 10:19:00 PM 41.9694 -108.4746 288° West  Level FlightAware Approximate
Wed 10:20:00 PM 42.0020 -108.6134 288° West  Level FlightAware Approximate
Wed 10:21:00 PM 42.0344 -108.7525 287° West  Level FlightAware Approximate
Wed 10:22:00 PM 42.0667 -108.8916 287° West  Level FlightAware Approximate
Wed 10:23:00 PM 42.0988 -109.0310 287° West  Level FlightAware Approximate
Wed 10:24:00 PM 42.1308 -109.1704 287° West  Level FlightAware Approximate
Wed 10:25:00 PM 42.1625 -109.3100 287° West  Level FlightAware Approximate
Wed 10:26:00 PM 42.1941 -109.4497 287° West  Level FlightAware Approximate
Wed 10:27:00 PM 42.2256 -109.5896 287° West  Level FlightAware Approximate
Wed 10:28:00 PM 42.2569 -109.7296 287° West  Level FlightAware Approximate
Wed 10:29:00 PM 42.2879 -109.8698 287° West  Level FlightAware Approximate
Wed 10:30:00 PM 42.3189 -110.0100 287° West  Level FlightAware Approximate
Wed 10:31:00 PM 42.3498 -110.1504 287° West  Level FlightAware Approximate
Wed 10:32:00 PM 42.3805 -110.2909 287° West  Level FlightAware Approximate
Wed 10:33:00 PM 42.4111 -110.4315 286° West  Level FlightAware Approximate
Wed 10:34:00 PM 42.4415 -110.5723 286° West  Level FlightAware Approximate
Wed 10:35:00 PM 42.4717 -110.7132 286° West  Level FlightAware Approximate
Wed 10:36:00 PM 42.5017 -110.8543 286° West  Level FlightAware Approximate
Wed 10:37:00 PM 42.5316 -110.9955 286° West  Level FlightAware Approximate
Wed 10:38:00 PM 42.5613 -111.1368 286° West  Level FlightAware Approximate
Wed 10:39:00 PM 42.5908 -111.2782 286° West  Level FlightAware Approximate
Wed 10:40:00 PM 42.6201 -111.4198 286° West  Level FlightAware Approximate
Wed 10:41:00 PM 42.6493 -111.5615 286° West  Level FlightAware Approximate
Wed 10:42:00 PM 42.6783 -111.7034 286° West  Level FlightAware Approximate
Wed 10:43:00 PM 42.7071 -111.8454 285° West  Level FlightAware Approximate
Wed 10:44:00 PM 42.7358 -111.9875 285° West  Level FlightAware Approximate
Wed 10:45:00 PM 42.7643 -112.1297 285° West  Level FlightAware Approximate
Wed 10:46:00 PM 42.7925 -112.2721 285° West  Level FlightAware Approximate
Wed 10:47:00 PM 42.8207 -112.4146 285° West  Level FlightAware Approximate
Wed 10:48:00 PM 42.8486 -112.5572 285° West  Level FlightAware Approximate
Wed 10:49:00 PM 42.8772 -112.6997 286° West  Level FlightAware Approximate
Wed 10:50:00 PM 42.9071 -112.8417 286° West  Level FlightAware Approximate
Wed 10:51:00 PM 42.9368 -112.9839 285° West  Level FlightAware Approximate
Wed 10:52:00 PM 42.9654 -113.1265 285° West  Level FlightAware Approximate
Wed 10:53:00 PM 42.9939 -113.2693 285° West  Level FlightAware Approximate
Wed 10:54:00 PM 43.0227 -113.4120 286° West  Level FlightAware Approximate
Wed 10:55:00 PM 43.0514 -113.5548 285° West  Level FlightAware Approximate
Wed 10:56:00 PM 43.0799 -113.6978 285° West  Level FlightAware Approximate
Wed 10:57:00 PM 43.1083 -113.8409 285° West  Level FlightAware Approximate
Wed 10:58:00 PM 43.1368 -113.9840 285° West  Level FlightAware Approximate
Wed 10:59:00 PM 43.1652 -114.1272 285° West  Level FlightAware Approximate
Wed 11:00:00 PM 43.1935 -114.2705 285° West  Level FlightAware Approximate
Wed 11:01:00 PM 43.2216 -114.4139 285° West  Level FlightAware Approximate
Wed 11:02:00 PM 43.2495 -114.5575 285° West  Level FlightAware Approximate
Wed 11:03:00 PM 43.2772 -114.7012 285° West  Level FlightAware Approximate
Wed 11:04:00 PM 43.3032 -114.8456 284° West  Level FlightAware Approximate
Wed 11:05:00 PM 43.3286 -114.9903 284° West  Level FlightAware Approximate
Wed 11:06:00 PM 43.3538 -115.1350 284° West  Level FlightAware Approximate
Wed 11:07:00 PM 43.3788 -115.2799 283° West  Level FlightAware Approximate
Wed 11:08:00 PM 43.4036 -115.4249 283° West  Level FlightAware Approximate
Wed 11:09:00 PM 43.4283 -115.5701 283° West  Level FlightAware Approximate
Wed 11:10:00 PM 43.4564 -115.7140 286° West  Level FlightAware Approximate
Wed 11:11:00 PM 43.4853 -115.8578 286° West  Level FlightAware Approximate
Wed 11:12:00 PM 43.5140 -116.0017 285° West  Level FlightAware Approximate
Wed 11:13:00 PM 43.5426 -116.1458 285° West  Level FlightAware Approximate
Wed 11:14:00 PM 43.5668 -116.2913 282° West  Level FlightAware Approximate
Wed 11:15:00 PM 43.5895 -116.4374 282° West  Level FlightAware Approximate
Wed 11:16:00 PM 43.6119 -116.5837 282° West  Level FlightAware Approximate
Wed 11:17:00 PM 43.6341 -116.7301 282° West  Level FlightAware Approximate
Wed 11:18:00 PM 43.6562 -116.8765 282° West  Level FlightAware Approximate
Wed 11:19:00 PM 43.6781 -117.0231 282° West  Level FlightAware Approximate
Wed 11:20:00 PM 43.6997 -117.1698 282° West  Level FlightAware Approximate
Wed 11:21:00 PM 43.7212 -117.3166 282° West  Level FlightAware Approximate
Wed 11:22:00 PM 43.7426 -117.4635 281° West  Level FlightAware Approximate
Wed 11:23:00 PM 43.7637 -117.6105 281° West  Level FlightAware Approximate
Wed 11:24:00 PM 43.7846 -117.7576 281° West  Level FlightAware Approximate
Wed 11:25:00 PM 43.8059 -117.9047 282° West  Level FlightAware Approximate
Wed 11:26:00 PM 43.8283 -118.0515 282° West  Level FlightAware Approximate
Wed 11:27:00 PM 43.8506 -118.1984 282° West  Level FlightAware Approximate
Wed 11:28:00 PM 43.8727 -118.3454 282° West  Level FlightAware Approximate
Wed 11:29:00 PM 43.8904 -118.4934 277° West  Level FlightAware Approximate
Wed 11:30:00 PM 43.9083 -118.6413 286° West  Level FlightAware Approximate
Wed 11:31:00 PM 43.9316 -118.7880 281° West  Level FlightAware Approximate
Wed 11:32:00 PM 43.9477 -118.9358 283° West  Level FlightAware Approximate
Wed 11:33:00 PM 43.9711 -119.0826 281° West  Level FlightAware Approximate
Wed 11:34:00 PM 43.9908 -119.2306 281° West  Level FlightAware Approximate
Wed 11:35:00 PM 44.0130 -119.3778 283° West  Level FlightAware Approximate
Wed 11:36:00 PM 44.0326 -119.5259 280° West  Level FlightAware Approximate
Wed 11:37:00 PM 44.0511 -119.6743 280° West  Level FlightAware Approximate
Wed 11:38:00 PM 44.0694 -119.8228 279° West  Level FlightAware Approximate
Wed 11:39:00 PM 44.0870 -119.9715 279° West  Level FlightAware Approximate
Wed 11:40:00 PM 44.1045 -120.1202 279° West  Level FlightAware Approximate
Wed 11:41:00 PM 44.1217 -120.2691 279° West  Level FlightAware Approximate
Wed 11:42:00 PM 44.1388 -120.4181 279° West  Level FlightAware Approximate
Wed 11:43:00 PM 44.1572 -120.5667 281° West  Level FlightAware Approximate
Wed 11:44:00 PM 44.1783 -120.7147 281° West  Level FlightAware Approximate
Wed 11:45:00 PM 44.1961 -120.8637 279° West  Level FlightAware Approximate
Wed 11:46:00 PM 44.2126 -121.0129 279° West  Level FlightAware Approximate
Wed 11:47:00 PM 44.2338 -121.1610 282° West  Level FlightAware Approximate
Wed 11:48:00 PM 44.2541 -121.1500 90° East  Level Estimated
Wed 11:49:00 PM 44.2541 -121.1500 90° East  Level Estimated
Wed 11:50:00 PM 44.2541 -121.1500 90° East  Level Estimated
Wed 11:51:00 PM 44.2541 -121.1500 90° East  Level Estimated

Login

Don't have an account? Register now (free) for customized features, flight alerts, and more!